createdAt,value
2022-11-09T00:00:44.098Z,21.70
2022-11-09T00:05:55.287Z,21.70
2022-11-09T00:11:03.200Z,21.80
2022-11-09T00:16:08.097Z,21.80
2022-11-09T00:21:12.349Z,21.80
2022-11-09T00:26:15.683Z,21.70
2022-11-09T00:31:20.683Z,21.70
2022-11-09T00:36:24.021Z,21.70
2022-11-09T00:41:26.943Z,21.70
2022-11-09T00:46:30.893Z,21.70
2022-11-09T00:51:33.792Z,21.70
2022-11-09T00:56:36.669Z,21.70
2022-11-09T01:01:40.834Z,21.70
2022-11-09T01:06:43.523Z,21.80
2022-11-09T01:11:46.137Z,21.70
2022-11-09T01:16:50.056Z,21.60
2022-11-09T01:21:52.645Z,21.80
2022-11-09T01:26:55.341Z,21.70
2022-11-09T01:31:59.284Z,21.80
2022-11-09T01:37:01.874Z,21.70
2022-11-09T01:42:04.504Z,21.70
2022-11-09T01:47:13.572Z,21.80
2022-11-09T01:52:18.577Z,21.70
2022-11-09T01:57:23.293Z,21.80
2022-11-09T02:02:27.253Z,21.70
2022-11-09T02:07:29.997Z,21.70
2022-11-09T02:12:34.571Z,21.80
2022-11-09T02:17:38.645Z,21.80
2022-11-09T02:22:42.869Z,21.70
2022-11-09T02:27:45.654Z,21.70
2022-11-09T02:32:48.341Z,21.70
2022-11-09T02:37:52.307Z,21.70
2022-11-09T02:42:55.344Z,21.80
2022-11-09T02:47:57.979Z,21.70
2022-11-09T02:53:01.977Z,21.70
2022-11-09T02:58:04.662Z,21.70
2022-11-09T03:03:07.323Z,21.70
2022-11-09T03:08:11.281Z,21.70
2022-11-09T03:13:13.888Z,21.70
2022-11-09T03:18:16.514Z,21.70
2022-11-09T03:23:20.896Z,21.60
2022-11-09T03:28:23.934Z,21.70
2022-11-09T03:33:26.868Z,21.70
2022-11-09T03:38:31.072Z,21.80
2022-11-09T03:43:33.657Z,21.70
2022-11-09T03:48:36.330Z,21.70
2022-11-09T03:53:40.268Z,21.70
2022-11-09T03:58:42.849Z,21.70
2022-11-09T04:03:45.541Z,21.70
2022-11-09T04:08:51.552Z,21.70
2022-11-09T04:13:54.429Z,21.70
2022-11-09T04:18:57.037Z,21.70
2022-11-09T04:24:01.004Z,21.70
2022-11-09T04:29:03.780Z,21.70
2022-11-09T04:34:06.409Z,21.70
2022-11-09T04:39:10.381Z,21.60
2022-11-09T04:44:12.980Z,21.70
2022-11-09T04:49:15.573Z,21.70
2022-11-09T04:54:19.514Z,21.70
2022-11-09T04:59:22.201Z,21.70
2022-11-09T05:04:24.794Z,21.70
2022-11-09T05:09:28.807Z,21.70
2022-11-09T05:14:31.643Z,21.60
2022-11-09T05:19:34.260Z,21.70
2022-11-09T05:24:38.253Z,21.60
2022-11-09T05:29:40.847Z,21.60
2022-11-09T05:34:43.471Z,21.70
2022-11-09T05:39:47.405Z,21.70
2022-11-09T05:44:50.071Z,21.60
2022-11-09T05:49:52.652Z,21.70
2022-11-09T05:54:56.580Z,21.70
2022-11-09T05:59:59.389Z,21.60
2022-11-09T06:05:02.010Z,21.70
2022-11-09T06:10:06.528Z,21.70
2022-11-09T06:15:09.760Z,21.60
2022-11-09T06:20:12.572Z,21.60
2022-11-09T06:25:16.640Z,21.70
2022-11-09T06:30:19.382Z,21.70
2022-11-09T06:35:21.990Z,21.70
2022-11-09T06:40:26.494Z,21.70
2022-11-09T06:45:29.712Z,21.70
2022-11-09T06:50:33.793Z,21.60
2022-11-09T06:55:38.070Z,21.70
2022-11-09T07:00:41.571Z,21.80
2022-11-09T07:05:44.526Z,21.80
2022-11-09T07:10:48.560Z,21.80
2022-11-09T07:15:53.947Z,21.90
2022-11-09T07:20:56.587Z,21.90
2022-11-09T07:26:00.813Z,21.90
2022-11-09T07:31:03.443Z,21.90
2022-11-09T07:36:06.370Z,21.90
2022-11-09T07:41:10.332Z,21.90
2022-11-09T07:46:12.924Z,22.10
2022-11-09T07:51:17.025Z,22.00
2022-11-09T07:56:21.050Z,22.00
2022-11-09T08:01:23.994Z,22.00
2022-11-09T08:06:28.697Z,21.90
2022-11-09T08:11:33.069Z,21.90
2022-11-09T08:16:37.932Z,21.90
2022-11-09T08:21:41.023Z,22.00
2022-11-09T08:26:45.083Z,22.00
2022-11-09T08:31:50.374Z,22.00
2022-11-09T08:36:53.496Z,22.00
2022-11-09T08:41:58.265Z,21.90
2022-11-09T08:47:00.850Z,21.90
2022-11-09T08:52:03.571Z,21.90
2022-11-09T08:57:07.814Z,22.10
2022-11-09T09:02:10.934Z,22.10
2022-11-09T09:07:15.155Z,22.00
2022-11-09T09:12:19.498Z,22.10
2022-11-09T09:17:22.338Z,22.10
2022-11-09T09:22:24.965Z,22.00
2022-11-09T09:27:30.326Z,22.00
2022-11-09T09:32:33.005Z,22.10
2022-11-09T09:37:35.805Z,22.20
2022-11-09T09:42:43.970Z,22.10
2022-11-09T09:47:51.303Z,22.10
2022-11-09T09:53:22.291Z,22.20
2022-11-09T09:58:23.512Z,22.20
2022-11-09T10:03:26.703Z,22.30
2022-11-09T10:08:34.667Z,22.40
2022-11-09T10:13:43.934Z,22.40
2022-11-09T10:18:54.341Z,22.50
2022-11-09T10:24:04.279Z,22.40
2022-11-09T10:29:21.224Z,22.50
2022-11-09T10:34:27.381Z,22.50
2022-11-09T10:39:35.132Z,22.60
2022-11-09T10:44:50.744Z,22.60
2022-11-09T10:50:07.670Z,22.60
2022-11-09T10:55:17.640Z,22.50
2022-11-09T11:00:22.631Z,22.60
2022-11-09T11:05:32.624Z,22.60
2022-11-09T11:10:35.236Z,22.60
2022-11-09T11:15:40.285Z,22.60
2022-11-09T11:20:42.933Z,22.60
2022-11-09T11:26:01.994Z,22.60
2022-11-09T11:31:07.069Z,22.70
2022-11-09T11:36:13.278Z,22.90
2022-11-09T11:41:24.975Z,22.90
2022-11-09T11:46:33.900Z,23.00
2022-11-09T11:51:41.021Z,23.00
2022-11-09T11:56:46.699Z,23.10
2022-11-09T12:01:59.024Z,23.10
2022-11-09T12:07:07.907Z,22.90
2022-11-09T12:12:15.964Z,22.90
2022-11-09T12:17:23.958Z,22.90
2022-11-09T12:22:32.621Z,23.10
2022-11-09T12:27:39.464Z,23.10
2022-11-09T12:32:47.320Z,23.10
2022-11-09T12:37:53.097Z,23.00
2022-11-09T12:42:59.084Z,23.00
2022-11-09T12:48:09.213Z,23.10
2022-11-09T12:53:12.195Z,23.10
2022-11-09T12:58:25.014Z,23.20
2022-11-09T13:03:30.161Z,23.30
2022-11-09T13:08:33.104Z,23.40
2022-11-09T13:13:35.959Z,23.40
2022-11-09T13:18:51.247Z,23.40
2022-11-09T13:24:05.152Z,23.30
2022-11-09T13:29:10.064Z,23.20
2022-11-09T13:34:31.086Z,23.30
2022-11-09T13:39:40.928Z,23.20
2022-11-09T13:44:45.903Z,23.30
2022-11-09T13:49:51.346Z,23.50
2022-11-09T13:54:55.504Z,23.60
2022-11-09T13:59:59.187Z,23.80
2022-11-09T14:05:02.302Z,23.60
2022-11-09T14:10:09.836Z,23.70
2022-11-09T14:15:25.275Z,23.60
2022-11-09T14:20:32.146Z,23.60
2022-11-09T14:25:37.195Z,23.60
2022-11-09T14:30:44.930Z,23.70
2022-11-09T14:35:47.813Z,23.60
2022-11-09T14:40:53.095Z,23.60
2022-11-09T14:45:57.904Z,23.50
2022-11-09T14:51:02.849Z,23.40
2022-11-09T14:56:08.061Z,23.30
2022-11-09T15:01:16.992Z,23.20
2022-11-09T15:06:19.787Z,23.10
2022-11-09T15:11:31.979Z,23.10
2022-11-09T15:16:34.666Z,23.00
2022-11-09T15:21:38.790Z,23.20
2022-11-09T15:26:44.361Z,23.20
2022-11-09T15:31:57.408Z,23.10
2022-11-09T15:37:02.553Z,23.10
2022-11-09T15:42:06.982Z,23.10
2022-11-09T15:47:22.737Z,23.10
2022-11-09T15:52:27.313Z,23.10
2022-11-09T15:57:31.559Z,22.90
2022-11-09T16:02:34.193Z,22.90
2022-11-09T16:07:36.905Z,22.90
2022-11-09T16:12:46.032Z,22.80
2022-11-09T16:17:50.332Z,23.00
2022-11-09T16:22:53.318Z,23.20
2022-11-09T16:27:57.504Z,23.10
2022-11-09T16:33:00.129Z,23.10
2022-11-09T16:38:03.146Z,23.10
2022-11-09T16:43:07.158Z,23.00
2022-11-09T16:48:12.499Z,23.00
2022-11-09T16:53:15.424Z,23.00
2022-11-09T16:58:19.691Z,23.00
2022-11-09T17:03:22.695Z,22.90
2022-11-09T17:08:25.554Z,22.90
2022-11-09T17:13:29.550Z,22.80
2022-11-09T17:18:32.164Z,22.80
2022-11-09T17:23:34.880Z,22.80
2022-11-09T17:28:42.878Z,22.80
2022-11-09T17:33:46.053Z,22.70
2022-11-09T17:38:48.655Z,22.70
2022-11-09T17:43:52.582Z,22.70
2022-11-09T17:48:55.320Z,22.70
2022-11-09T17:53:58.301Z,22.70
2022-11-09T17:59:04.037Z,22.60
2022-11-09T18:04:06.963Z,22.60
2022-11-09T18:14:33.499Z,22.60
2022-11-09T18:19:36.591Z,22.60
2022-11-09T18:24:39.200Z,22.50
2022-11-09T18:29:43.234Z,22.50
2022-11-09T18:34:45.937Z,22.60
2022-11-09T18:39:48.632Z,22.50
2022-11-09T18:44:52.613Z,22.50
2022-11-09T18:49:55.192Z,22.50
2022-11-09T18:54:57.901Z,22.40
2022-11-09T19:00:01.926Z,22.40
2022-11-09T19:05:06.721Z,22.40
2022-11-09T19:10:09.763Z,22.50
2022-11-09T19:15:14.107Z,22.40
2022-11-09T19:20:18.249Z,22.40
2022-11-09T19:25:20.835Z,22.40
2022-11-09T19:30:25.827Z,22.30
2022-11-09T19:35:32.647Z,22.30
2022-11-09T19:40:39.833Z,22.30
2022-11-09T19:45:44.152Z,22.30
2022-11-09T19:50:50.700Z,22.20
2022-11-09T19:55:58.368Z,22.20
2022-11-09T20:01:06.028Z,22.20
2022-11-09T20:06:08.713Z,22.20
2022-11-09T20:11:12.591Z,22.20
2022-11-09T20:16:16.507Z,22.10
2022-11-09T20:21:19.184Z,22.10
2022-11-09T20:26:21.823Z,22.20
2022-11-09T20:31:25.830Z,22.10
2022-11-09T20:36:28.465Z,22.10
2022-11-09T20:41:32.717Z,22.10
2022-11-09T20:46:37.107Z,22.10
2022-11-09T20:51:39.816Z,22.10
2022-11-09T20:56:42.446Z,22.10
2022-11-09T21:01:46.749Z,22.00
2022-11-09T21:06:49.544Z,22.00
2022-11-09T21:12:09.630Z,22.00
2022-11-09T21:17:13.598Z,22.00
2022-11-09T21:22:16.225Z,22.00
2022-11-09T21:27:38.540Z,22.00
2022-11-09T21:32:42.488Z,21.90
2022-11-09T21:37:45.073Z,22.00
2022-11-09T21:42:47.693Z,22.00
2022-11-09T21:47:51.649Z,21.90
2022-11-09T21:52:54.337Z,22.00
2022-11-09T21:57:57.023Z,21.90
2022-11-09T22:03:02.964Z,21.90
2022-11-09T22:08:05.790Z,21.90
2022-11-09T22:13:27.489Z,21.90
2022-11-09T22:18:50.664Z,21.90
2022-11-09T22:23:53.240Z,21.90
2022-11-09T22:28:55.856Z,21.90
2022-11-09T22:33:59.862Z,21.80
2022-11-09T22:39:02.527Z,21.90
2022-11-09T22:44:05.350Z,21.80
2022-11-09T22:49:10.185Z,21.80
2022-11-09T22:54:12.908Z,21.80
2022-11-09T22:59:15.490Z,21.80
2022-11-09T23:04:19.503Z,21.80
2022-11-09T23:09:22.100Z,21.80
2022-11-09T23:14:38.689Z,21.80
2022-11-09T23:19:42.617Z,21.90
2022-11-09T23:25:02.553Z,21.80
2022-11-09T23:30:05.554Z,21.80
2022-11-09T23:35:10.040Z,21.80
2022-11-09T23:40:13.550Z,21.80
2022-11-09T23:45:16.262Z,21.80
2022-11-09T23:50:20.296Z,21.80
2022-11-09T23:55:22.938Z,21.70
